createdAt,value
2022-09-15T00:02:25.195Z,13.93
2022-09-15T00:04:51.832Z,13.90
2022-09-15T00:07:18.414Z,13.00
2022-09-15T00:09:44.854Z,20.88
2022-09-15T00:12:11.436Z,22.40
2022-09-15T00:14:37.890Z,21.83
2022-09-15T00:17:04.558Z,28.95
2022-09-15T00:19:31.057Z,22.65
2022-09-15T00:21:57.569Z,17.38
2022-09-15T00:24:24.067Z,20.17
2022-09-15T00:26:50.672Z,24.00
2022-09-15T00:29:17.118Z,19.20
2022-09-15T00:31:43.562Z,14.02
2022-09-15T00:34:12.206Z,14.13
2022-09-15T00:36:38.794Z,12.93
2022-09-15T00:39:05.607Z,18.52
2022-09-15T00:41:32.177Z,16.30
2022-09-15T00:44:01.649Z,17.92
2022-09-15T00:46:37.042Z,17.70
2022-09-15T00:49:21.221Z,15.13
2022-09-15T00:51:51.726Z,13.98
2022-09-15T00:56:53.575Z,24.02
2022-09-15T00:59:24.321Z,15.25
2022-09-15T01:02:02.148Z,14.60
2022-09-15T01:04:28.961Z,13.77
2022-09-15T01:07:02.000Z,16.52
2022-09-15T01:09:34.817Z,17.90
2022-09-15T01:12:02.616Z,13.43
2022-09-15T01:14:29.206Z,18.88
2022-09-15T01:17:22.068Z,18.98
2022-09-15T01:20:26.182Z,25.50
2022-09-15T01:22:53.021Z,26.63
2022-09-15T01:25:31.813Z,26.10
2022-09-15T01:28:16.677Z,34.58
2022-09-15T01:30:54.873Z,25.33
2022-09-15T01:33:54.917Z,29.48
2022-09-15T01:36:44.970Z,34.40
2022-09-15T01:39:20.212Z,31.40
2022-09-15T01:41:55.949Z,35.60
2022-09-15T01:44:27.406Z,31.42
2022-09-15T01:46:59.580Z,34.45
2022-09-15T01:49:31.238Z,28.75
2022-09-15T01:51:57.674Z,34.53
2022-09-15T01:54:28.869Z,29.10
2022-09-15T01:56:56.131Z,27.48
2022-09-15T01:59:22.906Z,26.80
2022-09-15T02:01:58.816Z,28.27
2022-09-15T02:04:33.554Z,23.30
2022-09-15T02:07:30.361Z,34.63
2022-09-15T02:10:11.495Z,24.00
2022-09-15T02:12:47.907Z,28.08
2022-09-15T02:15:21.063Z,35.95
2022-09-15T02:17:54.033Z,25.50
2022-09-15T02:20:50.807Z,26.50
2022-09-15T02:23:26.174Z,34.70
2022-09-15T02:26:04.944Z,22.02
2022-09-15T02:28:36.694Z,38.80
2022-09-15T02:31:05.752Z,32.63
2022-09-15T02:33:40.096Z,26.85
2022-09-15T02:36:08.257Z,34.65
2022-09-15T02:38:40.765Z,22.92
2022-09-15T02:41:07.356Z,26.83
2022-09-15T02:43:34.143Z,34.45
2022-09-15T02:46:00.744Z,41.88
2022-09-15T02:48:27.262Z,35.40
2022-09-15T02:50:53.690Z,40.85
2022-09-15T02:53:20.103Z,31.45
2022-09-15T02:55:47.048Z,29.38
2022-09-15T02:58:13.460Z,36.53
2022-09-15T03:00:39.911Z,39.88
2022-09-15T03:03:06.369Z,31.17
2022-09-15T03:05:32.802Z,24.55
2022-09-15T03:07:59.265Z,24.58
2022-09-15T03:10:26.328Z,27.17
2022-09-15T03:12:54.331Z,29.75
2022-09-15T03:15:24.336Z,38.03
2022-09-15T03:17:51.104Z,43.72
2022-09-15T03:20:20.817Z,34.95
2022-09-15T03:22:47.883Z,40.50
2022-09-15T03:25:14.412Z,24.58
2022-09-15T03:27:40.939Z,39.75
2022-09-15T03:30:08.656Z,49.33
2022-09-15T03:32:35.300Z,44.10
2022-09-15T03:35:01.865Z,53.33
2022-09-15T03:37:28.517Z,57.22
2022-09-15T03:39:54.993Z,41.40
2022-09-15T03:42:21.771Z,46.50
2022-09-15T03:44:48.344Z,55.63
2022-09-15T03:47:14.810Z,54.80
2022-09-15T03:49:41.254Z,49.88
2022-09-15T03:52:07.725Z,45.58
2022-09-15T03:54:35.434Z,48.95
2022-09-15T03:57:01.905Z,41.88
2022-09-15T03:59:28.333Z,48.50
2022-09-15T04:01:54.839Z,40.25
2022-09-15T04:04:21.297Z,28.88
2022-09-15T04:06:47.712Z,26.05
2022-09-15T04:09:14.217Z,23.50
2022-09-15T04:11:40.958Z,35.20
2022-09-15T04:14:07.433Z,21.73
2022-09-15T04:16:34.083Z,31.33
2022-09-15T04:19:01.671Z,31.63
2022-09-15T04:21:28.122Z,38.63
2022-09-15T04:23:54.758Z,33.60
2022-09-15T04:26:34.323Z,39.15
2022-09-15T04:29:04.630Z,44.63
2022-09-15T04:31:33.138Z,33.78
2022-09-15T04:33:59.835Z,36.88
2022-09-15T04:36:28.177Z,38.25
2022-09-15T04:38:55.356Z,36.03
2022-09-15T04:41:22.649Z,33.58
2022-09-15T04:43:49.580Z,31.63
2022-09-15T04:46:16.759Z,21.05
2022-09-15T04:48:44.038Z,31.55
2022-09-15T04:51:17.147Z,27.85
2022-09-15T04:53:44.666Z,20.30
2022-09-15T04:56:13.981Z,19.77
2022-09-15T04:58:46.731Z,29.85
2022-09-15T05:01:18.996Z,36.65
2022-09-15T05:03:46.451Z,32.72
2022-09-15T05:06:15.905Z,32.67
2022-09-15T05:08:42.425Z,34.00
2022-09-15T05:11:11.632Z,36.22
2022-09-15T05:13:39.476Z,22.55
2022-09-15T05:16:18.523Z,26.02
2022-09-15T05:18:46.422Z,25.63
2022-09-15T05:21:14.729Z,30.67
2022-09-15T05:23:41.574Z,30.52
2022-09-15T05:26:12.072Z,31.95
2022-09-15T05:31:13.733Z,28.38
2022-09-15T05:33:40.638Z,27.67
2022-09-15T05:36:07.471Z,24.52
2022-09-15T05:38:34.111Z,25.15
2022-09-15T05:41:10.295Z,23.63
2022-09-15T05:43:37.965Z,23.75
2022-09-15T05:46:05.939Z,22.63
2022-09-15T05:48:32.657Z,26.50
2022-09-15T05:50:59.097Z,23.95
2022-09-15T05:53:26.612Z,24.33
2022-09-15T05:55:57.341Z,30.25
2022-09-15T05:58:24.341Z,27.52
2022-09-15T06:00:53.239Z,23.38
2022-09-15T06:03:20.689Z,26.63
2022-09-15T06:05:47.851Z,19.88
2022-09-15T06:08:14.399Z,26.25
2022-09-15T06:10:40.827Z,23.20
2022-09-15T06:13:07.550Z,26.40
2022-09-15T06:15:34.200Z,37.33
2022-09-15T06:18:00.632Z,32.50
2022-09-15T06:20:27.110Z,24.83
2022-09-15T06:22:54.106Z,28.13
2022-09-15T06:25:20.584Z,20.55
2022-09-15T06:27:49.840Z,30.42
2022-09-15T06:30:16.422Z,27.27
2022-09-15T06:32:47.934Z,22.73
2022-09-15T06:35:15.223Z,25.38
2022-09-15T06:37:41.661Z,29.10
2022-09-15T06:40:08.842Z,22.67
2022-09-15T06:42:35.393Z,24.50
2022-09-15T06:45:01.846Z,19.27
2022-09-15T06:47:33.764Z,15.32
2022-09-15T06:50:00.859Z,18.13
2022-09-15T06:52:27.703Z,13.85
2022-09-15T06:54:54.158Z,22.83
2022-09-15T06:57:20.598Z,26.92
2022-09-15T06:59:47.070Z,31.42
2022-09-15T07:02:13.752Z,31.52
2022-09-15T07:04:40.250Z,29.65
2022-09-15T07:07:08.009Z,28.58
2022-09-15T07:09:34.544Z,28.33
2022-09-15T07:12:01.329Z,29.83
2022-09-15T07:14:27.756Z,31.88
2022-09-15T07:16:54.219Z,32.38
2022-09-15T07:19:20.697Z,34.92
2022-09-15T07:21:47.078Z,26.00
2022-09-15T07:24:14.526Z,26.60
2022-09-15T07:26:41.827Z,26.35
2022-09-15T07:29:09.706Z,28.35
2022-09-15T07:31:38.365Z,25.40
2022-09-15T07:34:05.981Z,23.73
2022-09-15T07:36:32.676Z,27.65
2022-09-15T07:38:59.189Z,29.50
2022-09-15T07:41:30.526Z,29.23
2022-09-15T07:43:59.124Z,30.20
2022-09-15T07:46:29.140Z,39.88
2022-09-15T07:48:58.419Z,31.67
2022-09-15T07:51:25.674Z,21.92
2022-09-15T07:53:52.912Z,29.73
2022-09-15T07:56:19.644Z,21.65
2022-09-15T07:58:46.964Z,22.67
2022-09-15T08:01:16.308Z,23.45
2022-09-15T08:03:45.177Z,24.27
2022-09-15T08:06:13.057Z,24.60
2022-09-15T08:08:40.931Z,25.75
2022-09-15T08:11:09.510Z,22.40
2022-09-15T08:13:36.366Z,23.45
2022-09-15T08:16:16.916Z,20.17
2022-09-15T08:18:44.192Z,24.55
2022-09-15T08:21:14.350Z,23.42
2022-09-15T08:23:41.060Z,23.45
2022-09-15T08:26:13.579Z,22.42
2022-09-15T08:28:40.743Z,22.27
2022-09-15T08:31:09.239Z,23.48
2022-09-15T08:33:35.982Z,24.20
2022-09-15T08:36:07.504Z,18.55
2022-09-15T08:38:34.173Z,18.08
2022-09-15T08:41:06.321Z,15.05
2022-09-15T08:44:00.327Z,16.02
2022-09-15T08:46:37.196Z,13.45
2022-09-15T08:49:10.509Z,14.45
2022-09-15T08:51:46.112Z,19.10
2022-09-15T08:54:22.658Z,27.45
2022-09-15T08:56:49.939Z,23.98
2022-09-15T08:59:18.257Z,30.63
2022-09-15T09:02:23.398Z,26.98
2022-09-15T09:04:52.800Z,21.83
2022-09-15T09:07:30.937Z,17.65
2022-09-15T09:10:46.218Z,20.75
2022-09-15T09:14:05.739Z,17.95
2022-09-15T09:17:00.070Z,23.65
2022-09-15T09:20:01.889Z,18.17
2022-09-15T09:22:34.681Z,19.75
2022-09-15T09:25:21.278Z,24.42
2022-09-15T09:30:19.948Z,13.68
2022-09-15T09:33:08.557Z,22.42
2022-09-15T09:35:44.620Z,22.60
2022-09-15T09:38:31.716Z,24.38
2022-09-15T09:41:02.119Z,17.98
2022-09-15T09:43:30.426Z,15.82
2022-09-15T09:45:57.093Z,17.38
2022-09-15T09:48:27.640Z,19.33
2022-09-15T09:50:55.154Z,19.50
2022-09-15T09:53:34.248Z,21.90
2022-09-15T09:56:23.292Z,19.92
2022-09-15T09:58:50.223Z,21.98
2022-09-15T10:01:19.949Z,18.38
2022-09-15T10:03:46.892Z,18.75
2022-09-15T10:06:16.295Z,18.40
2022-09-15T10:08:58.729Z,18.48
2022-09-15T10:11:49.797Z,16.45
2022-09-15T10:14:22.492Z,20.75
2022-09-15T10:17:00.538Z,19.55
2022-09-15T10:19:44.780Z,17.67
2022-09-15T10:22:31.347Z,19.15
2022-09-15T10:25:00.423Z,17.85
2022-09-15T10:27:34.062Z,22.98
2022-09-15T10:30:12.853Z,17.45
2022-09-15T10:32:39.853Z,19.40
2022-09-15T10:35:21.118Z,18.23
2022-09-15T10:37:56.541Z,17.83
2022-09-15T10:40:33.568Z,19.08
2022-09-15T10:43:23.148Z,18.58
2022-09-15T10:45:59.984Z,17.58
2022-09-15T10:48:41.294Z,15.90
2022-09-15T10:51:10.482Z,14.52
2022-09-15T10:54:25.082Z,14.20
2022-09-15T10:56:57.290Z,14.52
2022-09-15T10:59:32.108Z,13.43
2022-09-15T11:02:20.206Z,13.50
2022-09-15T11:04:56.235Z,14.55
2022-09-15T11:07:44.769Z,11.45
2022-09-15T11:10:20.141Z,8.40
2022-09-15T11:13:00.167Z,8.38
2022-09-15T11:15:33.239Z,8.40
2022-09-15T11:18:24.169Z,9.43
2022-09-15T11:21:06.435Z,10.00
2022-09-15T11:24:11.958Z,8.32
2022-09-15T11:26:43.883Z,8.43
2022-09-15T11:29:18.010Z,6.60
2022-09-15T11:31:49.209Z,7.28
2022-09-15T11:34:22.991Z,8.90
2022-09-15T11:36:55.000Z,4.82
2022-09-15T11:39:30.446Z,8.13
2022-09-15T11:42:13.004Z,6.45
2022-09-15T11:47:19.952Z,8.77
2022-09-15T11:50:03.618Z,5.32
2022-09-15T11:52:56.484Z,8.02
2022-09-15T11:55:30.388Z,7.97
2022-09-15T11:58:16.334Z,9.30
2022-09-15T12:00:54.435Z,10.40
2022-09-15T12:03:50.547Z,10.02
2022-09-15T12:06:35.090Z,10.82
2022-09-15T12:09:04.020Z,8.82
2022-09-15T12:11:34.565Z,8.70
2022-09-15T12:14:04.034Z,11.02
2022-09-15T12:16:33.167Z,7.88
2022-09-15T12:19:21.511Z,9.52
2022-09-15T12:21:51.155Z,5.88
2022-09-15T12:24:41.335Z,7.45
2022-09-15T12:27:16.382Z,8.75
2022-09-15T12:29:51.307Z,8.30
2022-09-15T12:32:21.323Z,8.70
2022-09-15T12:35:24.933Z,6.25
2022-09-15T12:37:59.050Z,4.78
2022-09-15T12:40:27.742Z,8.43
2022-09-15T12:42:54.522Z,8.68
2022-09-15T12:45:24.739Z,6.55
2022-09-15T12:50:42.381Z,6.80
2022-09-15T12:53:21.949Z,9.05
2022-09-15T12:56:11.558Z,5.15
2022-09-15T12:58:40.767Z,8.05
2022-09-15T13:01:32.321Z,4.95
2022-09-15T13:03:58.928Z,4.25
2022-09-15T13:06:26.614Z,4.75
2022-09-15T13:08:53.057Z,5.25
2022-09-15T13:11:25.462Z,4.78
2022-09-15T13:14:11.161Z,6.78
2022-09-15T13:16:40.568Z,4.40
2022-09-15T13:19:41.369Z,5.45
2022-09-15T13:22:10.865Z,6.68
2022-09-15T13:24:46.100Z,7.93
2022-09-15T13:27:14.836Z,4.47
2022-09-15T13:30:11.317Z,5.72
2022-09-15T13:32:52.277Z,7.32
2022-09-15T13:35:40.358Z,7.53
2022-09-15T13:38:21.758Z,4.93
2022-09-15T13:41:10.508Z,5.68
2022-09-15T13:43:49.695Z,5.57
2022-09-15T13:46:28.858Z,7.72
2022-09-15T13:49:35.650Z,5.43
2022-09-15T13:52:23.316Z,7.68
2022-09-15T13:55:11.838Z,5.47
2022-09-15T14:00:43.333Z,5.15
2022-09-15T14:03:13.773Z,4.95
2022-09-15T14:05:40.553Z,5.15
2022-09-15T14:08:15.663Z,5.85
2022-09-15T14:10:48.326Z,7.68
2022-09-15T14:13:17.660Z,4.53
2022-09-15T14:16:10.411Z,6.82
2022-09-15T14:18:44.209Z,5.97
2022-09-15T14:21:16.848Z,4.97
2022-09-15T14:24:17.433Z,8.35
2022-09-15T14:26:43.868Z,6.93
2022-09-15T14:29:18.944Z,7.68
2022-09-15T14:31:45.720Z,9.90
2022-09-15T14:34:21.555Z,7.30
2022-09-15T14:37:04.218Z,6.13
2022-09-15T14:39:31.153Z,7.05
2022-09-15T14:47:28.327Z,5.15
2022-09-15T14:50:19.837Z,6.05
2022-09-15T14:53:02.926Z,5.03
2022-09-15T14:55:37.801Z,5.65
2022-09-15T14:58:45.524Z,7.20
2022-09-15T15:01:30.328Z,7.28
2022-09-15T15:04:20.122Z,4.07
2022-09-15T15:07:10.504Z,6.43
2022-09-15T15:09:50.383Z,6.70
2022-09-15T15:12:33.127Z,6.47
2022-09-15T15:17:45.293Z,3.28
2022-09-15T15:20:14.043Z,4.35
2022-09-15T15:22:42.441Z,3.88
2022-09-15T15:25:29.337Z,6.65
2022-09-15T15:28:00.374Z,5.28
2022-09-15T15:30:30.463Z,3.13
2022-09-15T15:32:58.248Z,3.55
2022-09-15T15:35:25.237Z,4.82
2022-09-15T15:38:03.551Z,3.17
2022-09-15T15:40:30.562Z,5.57
2022-09-15T15:43:03.110Z,6.07
2022-09-15T15:45:31.702Z,3.38
2022-09-15T15:47:58.442Z,4.22
2022-09-15T15:50:28.236Z,6.30
2022-09-15T15:52:54.804Z,6.18
2022-09-15T15:55:28.358Z,6.75
2022-09-15T15:57:55.935Z,6.22
2022-09-15T16:00:29.607Z,4.45
2022-09-15T16:02:56.311Z,6.63
2022-09-15T16:05:26.904Z,6.70
2022-09-15T16:07:56.072Z,4.20
2022-09-15T16:10:25.691Z,4.05
2022-09-15T16:12:52.214Z,6.60
2022-09-15T16:15:21.352Z,5.40
2022-09-15T16:17:48.920Z,3.72
2022-09-15T16:20:16.363Z,5.65
2022-09-15T16:22:43.480Z,6.88
2022-09-15T16:25:23.210Z,7.93
2022-09-15T16:27:49.722Z,6.13
2022-09-15T16:30:16.155Z,9.20
2022-09-15T16:32:42.726Z,8.65
2022-09-15T16:35:35.062Z,6.78
2022-09-15T16:38:01.580Z,9.45
2022-09-15T16:40:28.225Z,8.18
2022-09-15T16:42:54.805Z,7.75
2022-09-15T16:45:38.069Z,11.52
2022-09-15T16:48:07.205Z,6.28
2022-09-15T16:50:33.839Z,9.30
2022-09-15T16:53:00.316Z,5.47
2022-09-15T16:55:46.068Z,8.60
2022-09-15T16:58:14.053Z,6.65
2022-09-15T17:00:42.074Z,6.90
2022-09-15T17:03:09.037Z,8.88
2022-09-15T17:05:43.050Z,5.70
2022-09-15T17:08:12.945Z,9.13
2022-09-15T17:10:40.371Z,4.05
2022-09-15T17:13:07.993Z,6.53
2022-09-15T17:15:37.791Z,8.35
2022-09-15T17:18:05.629Z,4.70
2022-09-15T17:20:38.537Z,5.90
2022-09-15T17:23:31.055Z,7.97
2022-09-15T17:26:00.018Z,7.50
2022-09-15T17:28:29.249Z,7.47
2022-09-15T17:30:58.268Z,8.13
2022-09-15T17:33:25.295Z,7.30
2022-09-15T17:35:52.248Z,8.40
2022-09-15T17:38:20.406Z,4.22
2022-09-15T17:40:48.184Z,6.38
2022-09-15T17:43:17.704Z,6.97
2022-09-15T17:45:44.547Z,5.50
2022-09-15T17:48:11.796Z,7.70
2022-09-15T17:50:39.129Z,9.48
2022-09-15T17:53:13.766Z,7.20
2022-09-15T17:55:40.642Z,5.75
2022-09-15T17:58:07.462Z,5.35
2022-09-15T18:00:39.669Z,10.55
2022-09-15T18:03:23.601Z,2.92
2022-09-15T18:05:51.021Z,5.10
2022-09-15T18:08:18.517Z,4.75
2022-09-15T18:10:45.453Z,3.88
2022-09-15T18:13:20.903Z,3.47
2022-09-15T18:15:48.983Z,5.57
2022-09-15T18:18:18.801Z,3.47
2022-09-15T18:20:45.737Z,5.70
2022-09-15T18:23:14.740Z,3.17
2022-09-15T18:25:42.318Z,4.78
2022-09-15T18:28:09.285Z,6.35
2022-09-15T18:30:40.646Z,3.15
2022-09-15T18:33:22.163Z,7.78
2022-09-15T18:35:50.413Z,5.93
2022-09-15T18:38:17.929Z,12.82
2022-09-15T18:40:47.547Z,5.43
2022-09-15T18:43:14.061Z,6.18
2022-09-15T18:45:42.664Z,7.43
2022-09-15T18:48:12.627Z,3.28
2022-09-15T18:50:40.474Z,4.70
2022-09-15T18:53:06.916Z,18.85
2022-09-15T18:55:33.412Z,5.40
2022-09-15T18:58:01.189Z,12.88
2022-09-15T19:00:28.842Z,5.70
2022-09-15T19:02:59.630Z,7.57
2022-09-15T19:05:28.133Z,7.53
2022-09-15T19:07:55.376Z,5.60
2022-09-15T19:10:22.302Z,5.50
2022-09-15T19:12:48.751Z,7.60
2022-09-15T19:15:15.682Z,4.60
2022-09-15T19:17:43.298Z,5.85
2022-09-15T19:20:12.587Z,5.53
2022-09-15T19:22:39.645Z,7.10
2022-09-15T19:25:07.751Z,5.72
2022-09-15T19:27:34.727Z,5.45
2022-09-15T19:30:01.708Z,8.23
2022-09-15T19:32:28.182Z,8.35
2022-09-15T19:34:54.623Z,6.13
2022-09-15T19:37:22.296Z,4.93
2022-09-15T19:39:50.086Z,5.90
2022-09-15T19:42:16.639Z,5.05
2022-09-15T19:44:43.156Z,6.32
2022-09-15T19:47:10.524Z,6.00
2022-09-15T19:49:37.258Z,8.32
2022-09-15T19:52:06.221Z,4.50
2022-09-15T19:54:34.429Z,3.33
2022-09-15T19:57:01.191Z,6.95
2022-09-15T19:59:31.225Z,9.52
2022-09-15T20:01:59.215Z,6.43
2022-09-15T20:04:25.866Z,4.93
2022-09-15T20:06:52.316Z,8.45
2022-09-15T20:09:18.791Z,7.72
2022-09-15T20:11:45.350Z,5.65
2022-09-15T20:14:11.996Z,5.32
2022-09-15T20:16:38.471Z,6.60
2022-09-15T20:19:05.086Z,7.32
2022-09-15T20:21:52.045Z,5.35
2022-09-15T20:24:19.783Z,5.88
2022-09-15T20:26:46.388Z,5.18
2022-09-15T20:29:13.817Z,2.80
2022-09-15T20:31:40.662Z,6.00
2022-09-15T20:34:07.379Z,6.88
2022-09-15T20:36:36.835Z,7.85
2022-09-15T20:39:06.072Z,5.05
2022-09-15T20:41:32.666Z,5.93
2022-09-15T20:44:00.150Z,8.13
2022-09-15T20:46:28.798Z,3.58
2022-09-15T20:48:55.294Z,3.97
2022-09-15T20:51:24.392Z,7.43
2022-09-15T20:53:53.335Z,11.05
2022-09-15T20:56:24.741Z,4.68
2022-09-15T20:59:01.484Z,4.07
2022-09-15T21:01:36.714Z,4.60
2022-09-15T21:04:04.374Z,7.95
2022-09-15T21:06:31.574Z,10.90
2022-09-15T21:08:58.568Z,2.92
2022-09-15T21:11:26.668Z,2.85
2022-09-15T21:13:53.848Z,4.93
2022-09-15T21:16:23.393Z,4.82
2022-09-15T21:18:51.331Z,3.38
2022-09-15T21:21:19.410Z,5.18
2022-09-15T21:23:48.210Z,5.72
2022-09-15T21:26:18.059Z,7.40
2022-09-15T21:28:45.349Z,3.67
2022-09-15T21:31:16.956Z,5.47
2022-09-15T21:33:44.518Z,8.30
2022-09-15T21:36:18.592Z,6.75
2022-09-15T21:38:45.298Z,6.40
2022-09-15T21:41:14.934Z,3.85
2022-09-15T21:43:44.525Z,4.50
2022-09-15T21:46:13.564Z,5.00
2022-09-15T21:48:40.687Z,5.18
2022-09-15T21:51:08.186Z,2.03
2022-09-15T21:53:34.998Z,7.70
2022-09-15T21:56:03.471Z,3.83
2022-09-15T21:58:39.070Z,7.38
2022-09-15T22:01:14.109Z,4.70
2022-09-15T22:03:42.568Z,6.60
2022-09-15T22:06:13.058Z,4.97
2022-09-15T22:11:08.014Z,8.93
2022-09-15T22:13:36.971Z,6.47
2022-09-15T22:16:06.395Z,4.43
2022-09-15T22:18:36.755Z,6.07
2022-09-15T22:21:15.900Z,3.20
2022-09-15T22:23:43.736Z,2.90
2022-09-15T22:26:13.149Z,4.90
2022-09-15T22:28:39.909Z,11.45
2022-09-15T22:31:08.287Z,7.90
2022-09-15T22:33:35.070Z,3.88
2022-09-15T22:36:01.620Z,3.03
2022-09-15T22:38:29.978Z,4.22
2022-09-15T22:41:03.756Z,9.30
2022-09-15T22:43:30.219Z,7.53
2022-09-15T22:45:56.697Z,6.35
2022-09-15T22:48:23.634Z,6.88
2022-09-15T22:50:50.075Z,9.77
2022-09-15T22:53:16.517Z,6.43
2022-09-15T22:55:43.041Z,5.68
2022-09-15T22:58:09.554Z,8.38
2022-09-15T23:00:39.220Z,2.88
2022-09-15T23:03:06.571Z,5.45
2022-09-15T23:05:34.117Z,3.65
2022-09-15T23:08:00.675Z,5.63
2022-09-15T23:10:27.274Z,4.60
2022-09-15T23:12:54.221Z,5.55
2022-09-15T23:15:20.732Z,3.05
2022-09-15T23:17:47.437Z,5.38
2022-09-15T23:20:13.919Z,3.28
2022-09-15T23:22:40.377Z,3.97
2022-09-15T23:25:07.109Z,4.53
2022-09-15T23:27:33.611Z,8.95
2022-09-15T23:30:00.052Z,3.30
2022-09-15T23:32:26.490Z,3.10
2022-09-15T23:34:53.406Z,1.88
2022-09-15T23:37:19.822Z,3.47
2022-09-15T23:39:46.597Z,4.28
2022-09-15T23:42:18.077Z,3.17
2022-09-15T23:44:45.314Z,3.47
2022-09-15T23:47:11.710Z,5.13
2022-09-15T23:49:38.138Z,4.93
2022-09-15T23:52:04.585Z,4.80
2022-09-15T23:54:31.033Z,6.82
2022-09-15T23:56:57.541Z,2.88
2022-09-15T23:59:24.059Z,4.10
